Time;durP1;ratioP1;P1;durP2;ratioP2;P2;SDS_P1;SDS_P2;PMS_P1;PMS_P2;Temp;Humidity;BMP_temperature;BMP_pressure;BME280_temperature;BME280_humidity;BME280_pressure;Samples;Min_cycle;Max_cycle;Signal;HPM_P1;HPM_P2
2022/02/21 00:00:09;;;;;;;6.10;1.80;;;10.00;1.00;;;;;;5054997;28;20062;-74
2022/02/21 00:02:35;;;;;;;9.73;1.80;;;10.00;1.00;;;;;;5054977;28;20029;-74
2022/02/21 00:05:01;;;;;;;10.48;2.47;;;10.00;1.00;;;;;;5054366;28;20416;-74
2022/02/21 00:07:26;;;;;;;8.18;1.95;;;10.00;1.00;;;;;;5054383;28;20045;-74
2022/02/21 00:09:52;;;;;;;8.45;2.03;;;10.00;1.00;;;;;;5054598;28;20123;-74
2022/02/21 00:12:18;;;;;;;9.27;1.92;;;10.00;1.00;;;;;;5054242;28;20095;-74
2022/02/21 00:14:44;;;;;;;7.63;1.58;;;9.90;1.00;;;;;;5054571;28;20068;-74
2022/02/21 00:17:12;;;;;;;11.02;1.90;;;9.90;1.00;;;;;;5054481;28;20069;-74
2022/02/21 00:19:38;;;;;;;11.55;2.53;;;9.90;1.00;;;;;;5054368;28;20033;-74
2022/02/21 00:22:04;;;;;;;10.43;2.50;;;9.90;1.00;;;;;;5054717;28;20048;-74
2022/02/21 00:24:30;;;;;;;9.32;2.15;;;10.00;1.00;;;;;;5054636;28;20491;-74
2022/02/21 00:26:56;;;;;;;7.95;2.03;;;10.00;1.00;;;;;;5054606;28;20062;-74
2022/02/21 00:29:21;;;;;;;12.40;2.50;;;10.00;1.00;;;;;;5055308;28;20146;-74
2022/02/21 00:31:48;;;;;;;11.80;2.55;;;9.90;1.00;;;;;;5059144;28;20116;-74
2022/02/21 00:34:13;;;;;;;12.23;2.47;;;9.80;1.00;;;;;;5058899;28;20048;-74
2022/02/21 00:36:39;;;;;;;9.95;1.98;;;9.80;1.00;;;;;;5058781;28;20037;-74
2022/02/21 00:39:05;;;;;;;10.63;2.42;;;9.80;1.00;;;;;;5058303;28;20045;-73
2022/02/21 00:41:31;;;;;;;10.48;2.33;;;9.80;1.00;;;;;;5058792;28;20510;-73
2022/02/21 00:43:56;;;;;;;12.25;2.40;;;9.70;1.00;;;;;;5058723;28;20047;-73
2022/02/21 00:46:22;;;;;;;10.68;2.33;;;9.70;1.00;;;;;;5058191;28;20136;-74
2022/02/21 00:48:48;;;;;;;11.25;2.33;;;9.70;1.00;;;;;;5058421;28;20445;-74
2022/02/21 00:51:14;;;;;;;10.73;2.22;;;9.80;1.00;;;;;;5058207;28;20037;-74
2022/02/21 00:53:40;;;;;;;9.65;2.47;;;9.80;1.00;;;;;;5058566;28;20396;-74
2022/02/21 00:56:06;;;;;;;11.27;2.35;;;9.90;1.00;;;;;;5058356;28;20094;-74
2022/02/21 00:58:32;;;;;;;8.52;2.58;;;9.80;1.00;;;;;;5057992;28;20033;-74
2022/02/21 01:00:58;;;;;;;10.00;2.30;;;9.90;1.00;;;;;;5058332;28;20047;-74
2022/02/21 01:03:24;;;;;;;11.07;3.05;;;9.80;1.00;;;;;;5058424;28;20037;-74
2022/02/21 01:05:49;;;;;;;12.85;2.38;;;9.90;1.00;;;;;;5057864;28;20048;-74
2022/02/21 01:08:15;;;;;;;8.43;2.05;;;9.90;1.00;;;;;;5058027;28;20045;-74
2022/02/21 01:10:41;;;;;;;9.10;2.40;;;9.90;1.00;;;;;;5058423;28;20443;-74
2022/02/21 01:13:07;;;;;;;7.65;2.05;;;9.90;1.00;;;;;;5058454;28;20426;-74
2022/02/21 01:15:33;;;;;;;9.85;2.03;;;9.90;1.00;;;;;;5058051;28;20041;-74
2022/02/21 01:17:59;;;;;;;8.73;2.17;;;9.90;1.00;;;;;;5058213;28;20378;-74
2022/02/21 01:20:25;;;;;;;12.50;2.25;;;9.90;1.00;;;;;;5057955;28;20041;-74
2022/02/21 01:22:51;;;;;;;10.85;2.63;;;9.80;1.00;;;;;;5057915;28;20045;-74
2022/02/21 01:25:17;;;;;;;8.80;1.80;;;9.80;1.00;;;;;;5057936;28;20041;-73
2022/02/21 01:27:44;;;;;;;9.73;2.10;;;9.90;1.00;;;;;;5057457;28;20044;-74
2022/02/21 01:30:11;;;;;;;7.68;2.13;;;9.90;1.00;;;;;;5057448;28;20103;-74
2022/02/21 01:32:37;;;;;;;8.48;2.58;;;9.80;1.00;;;;;;5057418;28;20041;-74
2022/02/21 01:35:04;;;;;;;12.27;2.20;;;9.90;1.00;;;;;;5057496;28;20029;-74
2022/02/21 01:37:30;;;;;;;8.02;2.75;;;9.80;1.00;;;;;;5056815;28;20519;-74
2022/02/21 01:39:56;;;;;;;10.75;1.75;;;9.80;1.00;;;;;;5057604;28;20068;-74
2022/02/21 01:42:22;;;;;;;9.10;1.98;;;9.80;1.00;;;;;;5056759;28;20064;-74
2022/02/21 01:44:50;;;;;;;11.02;2.28;;;9.90;1.00;;;;;;5057731;28;20186;-73
2022/02/21 01:47:20;;;;;;;7.38;1.90;;;9.90;1.00;;;;;;5057363;28;20045;-74
2022/02/21 01:49:47;;;;;;;9.35;2.53;;;9.90;1.00;;;;;;5056917;28;20407;-74
2022/02/21 01:52:15;;;;;;;9.95;2.17;;;9.90;1.00;;;;;;5056917;28;20041;-74
2022/02/21 01:54:42;;;;;;;8.63;1.85;;;9.90;1.00;;;;;;5057100;28;20037;-74
2022/02/21 01:57:08;;;;;;;8.57;1.80;;;9.90;1.00;;;;;;5056726;28;20044;-74
2022/02/21 01:59:37;;;;;;;10.55;2.10;;;9.90;1.00;;;;;;5056823;28;20040;-73
2022/02/21 02:02:03;;;;;;;10.27;2.05;;;9.90;1.00;;;;;;5056924;28;20059;-74
2022/02/21 02:04:30;;;;;;;6.43;1.85;;;9.90;1.00;;;;;;5056624;28;20041;-74
2022/02/21 02:06:56;;;;;;;6.85;2.00;;;9.90;1.00;;;;;;5056758;28;20051;-74
2022/02/21 02:09:22;;;;;;;4.40;1.55;;;9.90;1.00;;;;;;5056484;28;20487;-74
2022/02/21 02:11:48;;;;;;;7.40;1.83;;;9.90;1.00;;;;;;5056697;28;20043;-74
2022/02/21 02:14:37;;;;;;;5.28;1.70;;;10.00;1.00;;;;;;5056750;28;20040;-74
2022/02/21 02:17:04;;;;;;;7.45;1.88;;;10.00;1.00;;;;;;5056966;28;20076;-74
2022/02/21 02:19:30;;;;;;;10.23;2.20;;;9.90;1.00;;;;;;5056577;28;20043;-74
2022/02/21 02:21:58;;;;;;;8.55;2.50;;;9.90;1.00;;;;;;5056473;28;20044;-74
2022/02/21 02:24:25;;;;;;;9.07;2.13;;;10.00;1.00;;;;;;5056015;28;20053;-74
2022/02/21 02:26:55;;;;;;;10.23;2.35;;;9.90;1.00;;;;;;5056258;28;20131;-73
2022/02/21 02:29:22;;;;;;;7.10;1.83;;;10.00;1.00;;;;;;5055988;28;20131;-74
2022/02/21 02:31:49;;;;;;;11.25;2.00;;;10.00;1.00;;;;;;5056368;28;20139;-74
2022/02/21 02:34:15;;;;;;;10.07;1.73;;;9.90;1.00;;;;;;5055795;28;20071;-74
2022/02/21 02:36:44;;;;;;;10.63;2.20;;;10.00;1.00;;;;;;5056237;28;20068;-74
2022/02/21 02:39:12;;;;;;;11.18;2.30;;;9.90;1.00;;;;;;5055895;28;20040;-74
2022/02/21 02:41:39;;;;;;;11.35;2.67;;;9.90;1.00;;;;;;5056447;28;20033;-73
2022/02/21 02:44:05;;;;;;;7.97;1.92;;;9.90;1.00;;;;;;5056612;28;20044;-74
2022/02/21 02:46:31;;;;;;;9.68;2.50;;;9.90;1.00;;;;;;5056259;28;20036;-74
2022/02/21 02:48:57;;;;;;;8.95;2.42;;;9.90;1.00;;;;;;5055991;28;20122;-73
2022/02/21 02:51:22;;;;;;;7.90;1.80;;;9.90;1.00;;;;;;5055954;28;20387;-74
2022/02/21 02:53:49;;;;;;;8.63;2.17;;;10.00;1.00;;;;;;5055701;28;20052;-74
2022/02/21 02:56:15;;;;;;;9.85;2.40;;;9.90;1.00;;;;;;5055450;28;20045;-73
2022/02/21 02:58:40;;;;;;;8.18;2.00;;;9.90;1.00;;;;;;5056039;28;20079;-74
2022/02/21 03:01:06;;;;;;;9.30;2.10;;;9.90;1.00;;;;;;5056072;28;20032;-73
2022/02/21 03:03:32;;;;;;;10.02;2.15;;;9.80;1.00;;;;;;5056064;28;20032;-74
2022/02/21 03:05:58;;;;;;;9.45;2.20;;;9.80;1.00;;;;;;5055250;28;20041;-73
2022/02/21 03:08:24;;;;;;;12.82;2.90;;;9.80;1.00;;;;;;5055465;28;20033;-73
2022/02/21 03:10:49;;;;;;;12.95;2.20;;;9.80;1.00;;;;;;5055563;28;20068;-73
2022/02/21 03:13:15;;;;;;;11.55;2.10;;;9.80;1.00;;;;;;5054006;28;20559;-73
2022/02/21 03:15:41;;;;;;;8.60;2.47;;;9.90;1.00;;;;;;5055438;28;20041;-73
2022/02/21 03:18:09;;;;;;;7.53;1.88;;;9.80;1.00;;;;;;5055171;28;20453;-74
2022/02/21 03:20:35;;;;;;;13.93;2.88;;;9.80;1.00;;;;;;5055353;28;20029;-73
2022/02/21 03:23:01;;;;;;;11.43;2.00;;;9.80;1.00;;;;;;5055398;28;20049;-74
2022/02/21 03:25:27;;;;;;;12.73;2.45;;;9.90;1.00;;;;;;5055985;28;20041;-73
2022/02/21 03:27:53;;;;;;;7.97;1.88;;;9.90;1.00;;;;;;5055145;28;20423;-74
2022/02/21 03:30:19;;;;;;;7.97;2.00;;;9.90;1.00;;;;;;5055189;28;20071;-73
2022/02/21 03:32:45;;;;;;;12.65;2.65;;;9.90;1.00;;;;;;5055983;28;20048;-73
2022/02/21 03:35:13;;;;;;;7.50;1.88;;;9.90;1.00;;;;;;5055414;28;20033;-74
2022/02/21 03:37:40;;;;;;;14.35;2.60;;;9.80;1.00;;;;;;5055700;28;20094;-74
2022/02/21 03:40:07;;;;;;;6.07;1.48;;;9.80;1.00;;;;;;5055544;28;20142;-74
2022/02/21 03:42:34;;;;;;;10.27;2.17;;;9.60;1.00;;;;;;5055601;28;20067;-74
2022/02/21 03:45:00;;;;;;;7.38;1.67;;;9.40;1.00;;;;;;5055283;28;20040;-74
2022/02/21 03:47:26;;;;;;;9.90;1.98;;;9.40;1.00;;;;;;5054842;28;20503;-74
2022/02/21 03:49:52;;;;;;;7.03;1.88;;;9.30;1.00;;;;;;5053932;28;20451;-74
2022/02/21 03:52:18;;;;;;;8.52;1.50;;;9.20;1.00;;;;;;5054990;28;20079;-74
2022/02/21 03:54:44;;;;;;;6.43;1.48;;;9.20;1.00;;;;;;5055088;28;20061;-74
2022/02/21 03:57:10;;;;;;;6.93;1.52;;;9.20;1.00;;;;;;5054860;28;20567;-74
2022/02/21 03:59:35;;;;;;;6.20;1.48;;;9.10;1.00;;;;;;5055051;28;20070;-74
2022/02/21 04:02:01;;;;;;;5.80;1.33;;;9.10;1.00;;;;;;5055020;28;20045;-74
2022/02/21 04:04:27;;;;;;;3.10;1.15;;;9.00;3.60;;;;;;5054203;28;20491;-73
2022/02/21 04:06:53;;;;;;;2.88;1.00;;;9.00;1.00;;;;;;5054867;28;20045;-74
2022/02/21 04:09:19;;;;;;;5.97;1.20;;;9.00;8.00;;;;;;5054485;28;20044;-74
2022/02/21 04:11:44;;;;;;;3.75;1.05;;;8.90;1.00;;;;;;5055175;28;20068;-74
2022/02/21 04:14:10;;;;;;;2.38;0.90;;;9.00;9.30;;;;;;5054755;28;20116;-74
2022/02/21 04:16:36;;;;;;;7.63;1.85;;;8.90;1.00;;;;;;5054860;28;20045;-74
2022/02/21 04:19:02;;;;;;;5.00;1.25;;;8.90;10.00;;;;;;5054783;28;20509;-74
2022/02/21 04:21:29;;;;;;;3.08;1.02;;;8.90;16.20;;;;;;5054804;28;20068;-75
2022/02/21 04:23:55;;;;;;;4.22;1.38;;;8.90;42.50;;;;;;5054193;28;20136;-74
2022/02/21 04:26:21;;;;;;;7.18;1.45;;;8.80;65.20;;;;;;5054634;28;20102;-74
2022/02/21 04:28:47;;;;;;;3.35;1.02;;;8.70;82.10;;;;;;5054038;28;20380;-74
2022/02/21 04:31:17;;;;;;;4.65;1.52;;;8.70;30.20;;;;;;5054892;28;20368;-74
2022/02/21 04:33:44;;;;;;;6.95;1.30;;;8.70;94.70;;;;;;5054397;28;20041;-74
2022/02/21 04:36:14;;;;;;;7.82;1.73;;;8.70;61.90;;;;;;5054238;28;20047;-74
2022/02/21 04:38:41;;;;;;;8.20;1.30;;;8.70;83.30;;;;;;5054138;28;20045;-74
2022/02/21 04:41:07;;;;;;;7.90;1.70;;;8.70;66.20;;;;;;5054275;28;20080;-74
2022/02/21 04:43:33;;;;;;;8.15;1.67;;;8.70;69.90;;;;;;5054557;28;20051;-74
2022/02/21 04:45:59;;;;;;;10.40;1.70;;;8.70;68.00;;;;;;5054229;28;20041;-74
2022/02/21 04:48:26;;;;;;;10.10;1.85;;;8.70;55.50;;;;;;5054077;28;20075;-74
2022/02/21 04:50:53;;;;;;;10.13;1.50;;;8.70;69.40;;;;;;5054151;28;20037;-75
2022/02/21 04:53:20;;;;;;;6.65;1.73;;;8.70;99.90;;;;;;5054188;28;20037;-74
2022/02/21 04:55:46;;;;;;;10.82;1.80;;;8.60;99.90;;;;;;5054158;28;20033;-74
2022/02/21 04:58:11;;;;;;;9.20;1.85;;;8.60;62.40;;;;;;5053797;28;20044;-74
2022/02/21 05:00:37;;;;;;;6.10;1.67;;;8.60;87.60;;;;;;5054109;28;20071;-74
2022/02/21 05:03:04;;;;;;;5.53;1.40;;;8.50;87.30;;;;;;5054313;28;20495;-74
2022/02/21 05:05:30;;;;;;;8.23;1.70;;;8.50;99.90;;;;;;5054065;28;20041;-74
2022/02/21 05:07:56;;;;;;;10.35;1.77;;;8.50;80.50;;;;;;5053717;28;20047;-74
2022/02/21 05:10:22;;;;;;;8.20;1.63;;;8.50;67.90;;;;;;5054044;28;20049;-74
2022/02/21 05:12:48;;;;;;;4.57;1.30;;;8.50;68.00;;;;;;5053993;28;20122;-74
2022/02/21 05:15:14;;;;;;;4.82;1.02;;;8.50;58.30;;;;;;5054710;28;20041;-74
2022/02/21 05:17:41;;;;;;;3.28;1.30;;;8.50;49.50;;;;;;5057789;28;20517;-74
2022/02/21 05:20:09;;;;;;;6.78;1.00;;;8.50;72.20;;;;;;5057700;28;20049;-74
2022/02/21 05:22:36;;;;;;;5.53;1.35;;;8.50;83.30;;;;;;5057767;28;20041;-74
2022/02/21 05:25:04;;;;;;;5.20;1.23;;;8.50;58.80;;;;;;5057424;28;20547;-74
2022/02/21 05:27:35;;;;;;;4.90;1.13;;;8.50;40.10;;;;;;5057463;28;20479;-74
2022/02/21 05:30:03;;;;;;;2.88;1.02;;;8.40;85.60;;;;;;5058179;28;20052;-74
2022/02/21 05:32:30;;;;;;;2.15;0.80;;;8.50;67.80;;;;;;5057790;28;20071;-74
2022/02/21 05:34:56;;;;;;;3.05;0.80;;;8.50;50.90;;;;;;5057748;28;20176;-74
2022/02/21 05:37:21;;;;;;;4.18;0.93;;;8.40;66.80;;;;;;5057517;28;20095;-74
2022/02/21 05:39:47;;;;;;;3.33;0.88;;;8.30;99.90;;;;;;5057370;28;20041;-74
2022/02/21 05:42:14;;;;;;;3.35;0.88;;;8.30;99.90;;;;;;5057294;28;20120;-74
2022/02/21 05:44:40;;;;;;;2.00;0.60;;;8.30;99.90;;;;;;5057317;28;20036;-74
2022/02/21 05:47:06;;;;;;;2.47;0.80;;;8.30;99.90;;;;;;5057718;28;20036;-74
2022/02/21 05:49:32;;;;;;;2.25;0.95;;;8.40;99.90;;;;;;5057458;28;20123;-74
2022/02/21 05:52:03;;;;;;;2.22;0.73;;;8.40;99.90;;;;;;5057460;28;20128;-74
2022/02/21 05:54:29;;;;;;;2.97;0.93;;;8.30;99.90;;;;;;5057310;28;20044;-74
2022/02/21 05:56:55;;;;;;;4.50;0.95;;;8.40;99.90;;;;;;5057266;28;20033;-74
2022/02/21 05:59:22;;;;;;;1.45;0.70;;;8.40;99.90;;;;;;5056887;28;20033;-74
2022/02/21 06:01:48;;;;;;;1.75;0.70;;;8.50;99.90;;;;;;5056849;28;20113;-74
2022/02/21 06:04:14;;;;;;;1.27;0.55;;;8.50;99.90;;;;;;5057058;28;20033;-74
2022/02/21 06:06:40;;;;;;;5.10;0.70;;;8.50;99.90;;;;;;5056734;28;20040;-74
2022/02/21 06:09:06;;;;;;;1.48;0.70;;;8.70;99.90;;;;;;5056928;28;20128;-74
2022/02/21 06:11:32;;;;;;;0.75;0.45;;;8.70;99.90;;;;;;5057034;28;20499;-74
2022/02/21 06:13:58;;;;;;;1.83;0.50;;;8.60;99.90;;;;;;5057047;28;20048;-74
2022/02/21 06:16:24;;;;;;;2.72;0.70;;;8.70;99.90;;;;;;5056683;28;20071;-74
2022/02/21 06:18:50;;;;;;;2.70;0.77;;;8.80;99.90;;;;;;5056948;28;20158;-73
2022/02/21 06:21:16;;;;;;;2.47;0.90;;;8.80;99.90;;;;;;5050199;28;20132;-74
2022/02/21 06:23:41;;;;;;;6.82;1.25;;;8.80;99.90;;;;;;5048067;28;20055;-75
2022/02/21 06:26:07;;;;;;;3.17;0.90;;;8.70;99.90;;;;;;5037717;28;20131;-74
2022/02/21 06:28:34;;;;;;;4.90;0.95;;;8.70;99.90;;;;;;5035922;28;20041;-74
2022/02/21 06:31:00;;;;;;;5.20;0.88;;;8.70;99.90;;;;;;5043638;28;20033;-74
2022/02/21 06:33:26;;;;;;;4.47;1.20;;;8.70;99.90;;;;;;5039527;28;20041;-75
2022/02/21 06:35:52;;;;;;;5.90;0.93;;;8.70;99.90;;;;;;5036616;28;20053;-75
2022/02/21 06:38:18;;;;;;;4.10;0.75;;;8.70;99.90;;;;;;5036404;28;20044;-75
2022/02/21 06:40:44;;;;;;;2.03;0.70;;;8.80;99.90;;;;;;5051676;28;20112;-75
2022/02/21 06:43:10;;;;;;;1.83;0.75;;;8.90;99.90;;;;;;5055595;28;20049;-75
2022/02/21 06:45:36;;;;;;;2.83;0.80;;;8.90;99.90;;;;;;5055722;28;20041;-76
2022/02/21 06:48:02;;;;;;;3.72;0.90;;;8.80;99.90;;;;;;5047739;28;20054;-76
2022/02/21 06:50:29;;;;;;;0.88;0.40;;;8.90;99.90;;;;;;5043994;28;20075;-77
2022/02/21 06:52:54;;;;;;;3.13;1.23;;;8.90;99.90;;;;;;5042341;28;20104;-77
2022/02/21 06:55:21;;;;;;;2.50;0.73;;;8.90;99.90;;;;;;5036238;28;20128;-75
2022/02/21 06:57:48;;;;;;;3.72;0.98;;;9.00;99.90;;;;;;5035720;28;20045;-75
2022/02/21 07:00:16;;;;;;;1.27;0.80;;;9.00;99.90;;;;;;5035976;28;20040;-77
2022/02/21 07:02:42;;;;;;;1.35;0.47;;;9.00;96.30;;;;;;5043684;28;20037;-76
2022/02/21 07:05:09;;;;;;;2.30;0.80;;;9.10;99.00;;;;;;5056070;28;20047;-75
2022/02/21 07:07:35;;;;;;;4.53;0.77;;;9.10;99.90;;;;;;5055686;28;20045;-74
2022/02/21 07:10:02;;;;;;;0.98;0.35;;;9.00;99.90;;;;;;5055862;28;20045;-75
2022/02/21 07:12:28;;;;;;;1.55;0.32;;;9.10;99.90;;;;;;5055747;28;20037;-75
2022/02/21 07:14:54;;;;;;;0.85;0.40;;;9.10;92.20;;;;;;5055880;28;20041;-76
2022/02/21 07:17:20;;;;;;;1.10;0.47;;;9.20;86.20;;;;;;5055777;28;20056;-75
2022/02/21 07:19:46;;;;;;;1.10;0.30;;;9.30;96.30;;;;;;5055711;28;20032;-75
2022/02/21 07:22:12;;;;;;;0.73;0.30;;;9.30;90.20;;;;;;5055260;28;20112;-75
2022/02/21 07:24:38;;;;;;;0.52;0.30;;;9.40;96.30;;;;;;5055950;28;20045;-75
2022/02/21 07:27:04;;;;;;;1.08;0.40;;;9.40;97.10;;;;;;5055001;28;20041;-75
2022/02/21 07:29:31;;;;;;;0.63;0.20;;;9.30;99.90;;;;;;5054968;28;20094;-75
2022/02/21 07:31:57;;;;;;;0.20;0.20;;;9.40;85.90;;;;;;5055503;28;20048;-75
2022/02/21 07:34:23;;;;;;;0.25;0.20;;;9.40;72.00;;;;;;5055260;28;20480;-75
2022/02/21 07:36:49;;;;;;;1.55;0.30;;;9.40;99.90;;;;;;5055144;28;20068;-75
2022/02/21 07:39:17;;;;;;;0.30;0.20;;;9.40;99.90;;;;;;5053832;28;20110;-75
2022/02/21 07:41:43;;;;;;;0.60;0.30;;;9.40;99.90;;;;;;5055036;28;20099;-75
2022/02/21 07:44:09;;;;;;;0.88;0.30;;;9.50;99.90;;;;;;5054924;28;20167;-75
2022/02/21 07:46:35;;;;;;;0.63;0.20;;;9.50;62.70;;;;;;5054866;28;20555;-75
2022/02/21 07:49:01;;;;;;;0.65;0.35;;;9.60;79.70;;;;;;5054901;28;20055;-75
2022/02/21 07:51:28;;;;;;;0.38;0.35;;;9.60;70.00;;;;;;5054626;28;20036;-75
2022/02/21 07:53:55;;;;;;;1.58;0.30;;;9.70;68.20;;;;;;5054347;28;20040;-75
2022/02/21 07:56:21;;;;;;;0.30;0.30;;;9.80;43.60;;;;;;5055352;28;20052;-75
2022/02/21 07:58:47;;;;;;;0.57;0.43;;;9.80;35.80;;;;;;5054470;28;20036;-75
2022/02/21 08:01:13;;;;;;;2.80;0.60;;;9.90;67.30;;;;;;5054471;28;20553;-75
2022/02/21 08:03:39;;;;;;;4.25;1.50;;;9.80;91.00;;;;;;5054285;28;20079;-75
2022/02/21 08:06:11;;;;;;;7.53;3.00;;;9.90;64.10;;;;;;5054292;28;20047;-75
2022/02/21 08:08:40;;;;;;;3.47;0.90;;;9.90;66.80;;;;;;5054470;28;20052;-75
2022/02/21 08:11:06;;;;;;;2.45;1.20;;;10.00;22.50;;;;;;5055359;28;20098;-75
2022/02/21 08:13:32;;;;;;;2.95;0.95;;;10.00;44.60;;;;;;5054489;28;20045;-76
2022/02/21 08:15:58;;;;;;;1.35;0.77;;;10.10;35.70;;;;;;5054588;28;20392;-75
2022/02/21 08:18:24;;;;;;;6.30;0.98;;;10.00;31.70;;;;;;5054309;28;20515;-76
2022/02/21 08:20:50;;;;;;;5.20;1.00;;;9.90;34.50;;;;;;5054686;28;20037;-75
2022/02/21 08:23:16;;;;;;;1.60;0.63;;;10.10;51.90;;;;;;5054173;28;20071;-75
2022/02/21 08:25:42;;;;;;;5.40;1.17;;;10.10;6.80;;;;;;5054475;28;20033;-76
2022/02/21 08:28:08;;;;;;;2.38;1.13;;;10.10;2.30;;;;;;5054311;28;20059;-75
2022/02/21 08:30:34;;;;;;;4.07;1.20;;;10.20;1.00;;;;;;5054401;28;20041;-75
2022/02/21 08:33:00;;;;;;;3.47;1.48;;;10.20;16.40;;;;;;5054972;28;20048;-75
2022/02/21 08:35:26;;;;;;;3.33;0.82;;;10.20;1.00;;;;;;5053463;28;20044;-75
2022/02/21 08:37:52;;;;;;;4.20;1.38;;;9.90;50.30;;;;;;5049526;28;20052;-75
2022/02/21 08:40:20;;;;;;;3.75;1.20;;;9.60;99.90;;;;;;5043138;28;20036;-75
2022/02/21 08:42:46;;;;;;;3.95;1.45;;;9.30;99.90;;;;;;5054273;28;20055;-75
2022/02/21 08:45:12;;;;;;;3.17;0.90;;;9.40;99.90;;;;;;5053936;28;20037;-76
2022/02/21 08:47:39;;;;;;;3.05;1.15;;;9.40;99.90;;;;;;5035235;28;20091;-75
2022/02/21 08:50:08;;;;;;;1.55;0.90;;;9.50;99.90;;;;;;5049989;28;20082;-75
2022/02/21 08:52:34;;;;;;;5.15;0.95;;;9.50;99.90;;;;;;5058332;28;20045;-75
2022/02/21 08:55:00;;;;;;;1.92;0.80;;;9.80;99.90;;;;;;5058090;28;20116;-75
2022/02/21 08:57:27;;;;;;;2.60;0.88;;;9.90;99.90;;;;;;5058175;28;20114;-75
2022/02/21 08:59:54;;;;;;;1.75;0.68;;;10.30;99.90;;;;;;5038764;28;20033;-75
2022/02/21 09:02:20;;;;;;;2.42;0.70;;;10.40;99.90;;;;;;5056694;28;20052;-75
2022/02/21 09:04:47;;;;;;;3.30;0.65;;;10.50;99.90;;;;;;5058261;28;20092;-76
2022/02/21 09:07:13;;;;;;;2.75;0.73;;;10.00;1.00;;;;;;5036501;28;20097;-76
2022/02/21 09:09:39;;;;;;;0.82;0.60;;;9.50;99.90;;;;;;5037345;28;20511;-76
2022/02/21 09:12:06;;;;;;;2.50;0.65;;;9.50;99.90;;;;;;5040966;28;20038;-75
2022/02/21 09:14:33;;;;;;;3.67;1.00;;;9.50;99.90;;;;;;5049492;28;20033;-75
2022/02/21 09:16:59;;;;;;;5.45;1.23;;;9.70;99.90;;;;;;5057476;28;20041;-76
2022/02/21 09:19:24;;;;;;;6.07;1.17;;;9.70;99.90;;;;;;5057432;28;20119;-76
2022/02/21 09:21:50;;;;;;;4.50;1.20;;;9.80;99.90;;;;;;5057296;28;20049;-75
2022/02/21 09:24:16;;;;;;;8.27;1.17;;;9.90;67.80;;;;;;5057303;28;20404;-75
2022/02/21 09:26:42;;;;;;;5.05;1.42;;;9.90;4.10;;;;;;5069769;28;20071;-75
2022/02/21 09:29:08;;;;;;;8.10;1.52;;;9.90;39.20;;;;;;5077391;28;20040;-76
2022/02/21 09:31:34;;;;;;;5.72;2.05;;;10.00;24.80;;;;;;5076161;28;20028;-75
2022/02/21 09:34:00;;;;;;;7.07;2.10;;;10.20;47.10;;;;;;5076958;28;20430;-76
2022/02/21 09:36:26;;;;;;;7.72;2.22;;;10.10;42.40;;;;;;5058278;28;20102;-76
2022/02/21 09:38:52;;;;;;;12.30;2.95;;;10.10;1.00;;;;;;5057056;28;20390;-75
2022/02/21 09:41:19;;;;;;;10.05;2.08;;;10.10;3.80;;;;;;5057029;28;20044;-75
2022/02/21 09:43:46;;;;;;;13.70;2.53;;;10.20;1.00;;;;;;5057454;28;20194;-75
2022/02/21 09:46:12;;;;;;;10.23;2.40;;;10.40;1.00;;;;;;5056590;28;20037;-75
2022/02/21 09:48:39;;;;;;;9.40;2.33;;;10.60;1.00;;;;;;5057192;28;20051;-76
2022/02/21 09:51:07;;;;;;;13.85;3.28;;;10.70;1.00;;;;;;5057388;28;20033;-75
2022/02/21 09:53:36;;;;;;;13.38;2.63;;;10.70;1.00;;;;;;5057204;28;20087;-75
2022/02/21 09:56:03;;;;;;;11.77;2.95;;;10.80;1.00;;;;;;5057240;28;20036;-75
2022/02/21 09:58:30;;;;;;;16.98;3.30;;;10.70;1.00;;;;;;5057220;28;20039;-75
2022/02/21 10:00:57;;;;;;;12.38;3.05;;;11.10;1.00;;;;;;5057270;28;20033;-74
2022/02/21 10:03:38;;;;;;;12.57;2.88;;;11.40;1.00;;;;;;5056365;28;20075;-75
2022/02/21 10:06:13;;;;;;;;;;;11.20;1.00;;;;;;5057533;28;20029;-76
2022/02/21 10:08:50;;;;;;;8.45;2.22;;;11.00;1.00;;;;;;5056664;28;19947;-75
2022/02/21 10:11:23;;;;;;;7.60;2.13;;;10.30;91.00;;;;;;5057176;28;20077;-75
2022/02/21 10:14:03;;;;;;;7.65;1.92;;;10.20;84.60;;;;;;5056722;28;20040;-75
2022/02/21 10:16:41;;;;;;;10.98;2.28;;;10.60;1.00;;;;;;5056823;28;20102;-75
2022/02/21 10:19:20;;;;;;;11.15;2.60;;;10.70;1.00;;;;;;5042303;28;20056;-75
2022/02/21 10:21:59;;;;;;;14.57;3.05;;;10.70;1.00;;;;;;5036364;28;20064;-75
2022/02/21 10:24:27;;;;;;;12.00;3.30;;;10.70;1.00;;;;;;5036711;28;20053;-75
2022/02/21 10:26:56;;;;;;;15.48;3.55;;;10.50;1.00;;;;;;5036586;28;20391;-76
2022/02/21 10:29:23;;;;;;;22.40;5.35;;;10.40;1.00;;;;;;5036767;28;20045;-75
2022/02/21 10:31:48;;;;;;;21.30;4.55;;;10.50;1.00;;;;;;5036660;28;20515;-75
2022/02/21 10:34:14;;;;;;;20.25;4.60;;;10.50;1.00;;;;;;5036994;28;20033;-75
2022/02/21 10:36:45;;;;;;;20.98;4.22;;;10.50;1.00;;;;;;5051398;28;20048;-76
2022/02/21 10:39:12;;;;;;;26.38;5.07;;;10.50;1.00;;;;;;5039694;28;20053;-75
2022/02/21 10:41:48;;;;;;;26.60;5.47;;;10.80;1.00;;;;;;5036433;28;20029;-75
2022/02/21 10:44:22;;;;;;;23.67;4.20;;;10.80;1.00;;;;;;5036248;28;20034;-75
2022/02/21 10:47:15;;;;;;;25.65;5.43;;;10.80;1.00;;;;;;5037183;28;20076;-74
2022/02/21 10:50:01;;;;;;;32.75;6.15;;;10.80;1.00;;;;;;5052230;28;20045;-75
2022/02/21 10:52:28;;;;;;;25.52;4.88;;;10.70;1.00;;;;;;5055771;28;20037;-75
2022/02/21 10:54:55;;;;;;;25.42;5.57;;;10.60;1.00;;;;;;5049180;28;20041;-75
2022/02/21 10:57:27;;;;;;;25.20;5.60;;;10.60;1.00;;;;;;5048865;28;20041;-75
2022/02/21 10:59:54;;;;;;;30.27;5.63;;;10.40;1.00;;;;;;5055025;28;20140;-75
2022/02/21 11:02:21;;;;;;;27.25;5.97;;;10.30;1.00;;;;;;5035666;28;20029;-75
2022/02/21 11:04:47;;;;;;;20.42;5.00;;;10.20;1.00;;;;;;5036744;28;20120;-75
2022/02/21 11:07:14;;;;;;;24.83;5.07;;;10.20;1.00;;;;;;5039880;28;20502;-75
2022/02/21 11:09:42;;;;;;;30.25;5.65;;;10.30;1.00;;;;;;5047563;28;20045;-74
2022/02/21 11:12:09;;;;;;;28.25;5.18;;;10.50;1.00;;;;;;5055517;28;20037;-75
2022/02/21 11:14:38;;;;;;;33.05;6.30;;;10.60;1.00;;;;;;5036907;28;20041;-76
2022/02/21 11:17:06;;;;;;;32.38;6.93;;;10.60;1.00;;;;;;5035361;28;20037;-75
2022/02/21 11:19:32;;;;;;;25.27;5.40;;;10.70;1.00;;;;;;5035286;28;20038;-75
2022/02/21 11:21:59;;;;;;;20.67;4.75;;;10.70;1.00;;;;;;5037606;28;20399;-75
2022/02/21 11:24:32;;;;;;;30.05;5.45;;;10.70;1.00;;;;;;5033745;28;20126;-75
2022/02/21 11:27:35;;;;;;;28.65;5.30;;;10.60;1.00;;;;;;5035641;28;20500;-75
2022/02/21 11:30:30;;;;;;;32.75;5.53;;;10.40;1.00;;;;;;5003498;28;20053;-75
2022/02/21 11:33:09;;;;;;;24.55;5.57;;;10.70;1.00;;;;;;5022234;28;20045;-76
2022/02/21 11:35:39;;;;;;;29.83;5.55;;;10.70;1.00;;;;;;5035334;28;20048;-75
2022/02/21 11:38:20;;;;;;;40.15;6.88;;;10.80;1.00;;;;;;5034870;28;20091;-76
2022/02/21 11:40:56;;;;;;;29.52;5.80;;;11.00;1.00;;;;;;5034892;28;20049;-75
2022/02/21 11:43:34;;;;;;;29.35;5.53;;;11.00;1.00;;;;;;5034439;28;20090;-76
2022/02/21 11:46:04;;;;;;;24.83;5.80;;;10.70;1.00;;;;;;5043692;28;20083;-75
2022/02/21 11:48:49;;;;;;;30.15;6.20;;;10.60;1.00;;;;;;5046127;28;20076;-74
2022/02/21 11:51:39;;;;;;;27.38;5.28;;;10.90;1.00;;;;;;5034547;28;20033;-76
2022/02/21 11:54:14;;;;;;;25.85;5.10;;;10.80;1.00;;;;;;5033276;28;20159;-75
2022/02/21 11:56:49;;;;;;;30.88;5.80;;;10.90;1.00;;;;;;5040208;28;20048;-74
2022/02/21 11:59:28;;;;;;;31.27;5.50;;;10.80;1.00;;;;;;5039855;28;20114;-75
2022/02/21 12:02:09;;;;;;;25.50;4.43;;;10.60;1.00;;;;;;5041211;28;20041;-75
2022/02/21 12:04:56;;;;;;;30.58;6.15;;;10.40;1.00;;;;;;5043094;28;20029;-75
2022/02/21 12:07:36;;;;;;;31.80;6.50;;;10.60;1.00;;;;;;5040045;28;20045;-75
2022/02/21 12:10:21;;;;;;;26.20;5.40;;;10.70;1.00;;;;;;5054668;28;20040;-76
2022/02/21 12:12:54;;;;;;;23.67;5.05;;;11.10;1.00;;;;;;5042117;28;20037;-76
2022/02/21 12:15:22;;;;;;;20.95;4.90;;;11.10;1.00;;;;;;5051273;28;20068;-75
2022/02/21 12:17:59;;;;;;;25.75;5.57;;;11.10;1.00;;;;;;5040736;28;20056;-76
2022/02/21 12:20:28;;;;;;;27.40;6.03;;;10.90;1.00;;;;;;5035565;28;20041;-76
2022/02/21 12:23:13;;;;;;;33.45;6.30;;;10.70;1.00;;;;;;5045429;28;20116;-76
2022/02/21 12:25:41;;;;;;;33.15;6.55;;;10.90;1.00;;;;;;5040162;28;20037;-75
2022/02/21 12:28:23;;;;;;;26.15;5.03;;;10.80;1.00;;;;;;5035215;28;20037;-76
2022/02/21 12:30:54;;;;;;;35.05;6.45;;;10.50;1.00;;;;;;5044979;28;20041;-76
2022/02/21 12:33:26;;;;;;;25.67;5.32;;;10.60;1.00;;;;;;5035347;28;20108;-75
2022/02/21 12:36:00;;;;;;;33.53;7.30;;;10.30;1.00;;;;;;5064807;28;20135;-76
2022/02/21 12:38:36;;;;;;;25.77;5.05;;;10.30;1.00;;;;;;5053187;28;20033;-76
2022/02/21 12:41:11;;;;;;;31.25;5.93;;;10.40;1.00;;;;;;5034417;28;20488;-75
2022/02/21 12:43:52;;;;;;;31.98;6.88;;;10.40;1.00;;;;;;5034488;28;20460;-76
2022/02/21 12:46:23;;;;;;;27.40;5.78;;;10.10;1.00;;;;;;5038659;28;20037;-77
2022/02/21 12:48:50;;;;;;;31.33;5.85;;;10.20;1.00;;;;;;5040575;28;20081;-76
2022/02/21 12:51:28;;;;;;;27.38;5.53;;;10.10;1.00;;;;;;5043418;28;20526;-77
2022/02/21 12:53:58;;;;;;;30.30;7.03;;;10.00;1.00;;;;;;5043397;28;20041;-74
2022/02/21 12:56:25;;;;;;;27.33;6.00;;;10.10;1.00;;;;;;5042437;28;20037;-73
2022/02/21 12:58:51;;;;;;;35.70;6.40;;;10.00;1.00;;;;;;5043539;28;20041;-74